createdAt,value
2022-11-30T00:00:29.469Z,81.63
2022-11-30T00:02:57.329Z,81.01
2022-11-30T00:05:25.325Z,81.51
2022-11-30T00:07:54.653Z,81.29
2022-11-30T00:10:22.314Z,81.25
2022-11-30T00:12:50.287Z,81.51
2022-11-30T00:15:18.307Z,81.89
2022-11-30T00:17:45.969Z,81.79
2022-11-30T00:20:13.587Z,81.62
2022-11-30T00:22:41.252Z,81.62
2022-11-30T00:25:08.960Z,81.30
2022-11-30T00:27:36.847Z,81.56
2022-11-30T00:30:04.470Z,81.10
2022-11-30T00:32:32.146Z,81.42
2022-11-30T00:34:59.779Z,81.12
2022-11-30T00:37:28.972Z,81.49
2022-11-30T00:39:56.603Z,81.61
2022-11-30T00:42:24.229Z,81.22
2022-11-30T00:44:51.777Z,81.62
2022-11-30T00:47:19.429Z,81.87
2022-11-30T00:49:50.597Z,81.42
2022-11-30T00:52:18.194Z,81.54
2022-11-30T00:54:46.184Z,81.64
2022-11-30T00:57:14.023Z,81.60
2022-11-30T00:59:41.624Z,81.59
2022-11-30T01:02:11.540Z,81.83
2022-11-30T01:04:39.198Z,81.66
2022-11-30T01:07:06.853Z,81.53
2022-11-30T01:09:34.473Z,81.82
2022-11-30T01:12:02.356Z,81.38
2022-11-30T01:14:30.263Z,82.06
2022-11-30T01:16:57.894Z,81.74
2022-11-30T01:19:25.477Z,81.66
2022-11-30T01:21:53.040Z,81.82
2022-11-30T01:24:20.648Z,81.84
2022-11-30T01:26:49.058Z,81.84
2022-11-30T01:29:16.663Z,81.97
2022-11-30T01:31:44.273Z,81.59
2022-11-30T01:34:12.124Z,81.83
2022-11-30T01:36:39.694Z,81.96
2022-11-30T01:39:07.637Z,81.69
2022-11-30T01:41:35.219Z,82.12
2022-11-30T01:44:02.828Z,81.82
2022-11-30T01:46:30.534Z,82.02
2022-11-30T01:48:58.233Z,81.54
2022-11-30T01:51:26.142Z,82.10
2022-11-30T01:53:53.757Z,82.12
2022-11-30T01:56:21.608Z,81.29
2022-11-30T01:58:49.177Z,81.73
2022-11-30T02:01:16.925Z,81.97
2022-11-30T02:03:46.265Z,81.86
2022-11-30T02:06:13.849Z,81.77
2022-11-30T02:08:41.472Z,81.70
2022-11-30T02:11:09.067Z,81.58
2022-11-30T02:13:36.622Z,81.86
2022-11-30T02:16:04.765Z,82.03
2022-11-30T02:18:32.565Z,81.68
2022-11-30T02:21:00.278Z,82.07
2022-11-30T02:23:28.008Z,81.79
2022-11-30T02:25:55.653Z,81.64
2022-11-30T02:28:24.150Z,81.76
2022-11-30T02:30:51.846Z,81.72
2022-11-30T02:33:19.494Z,81.74
2022-11-30T02:35:50.352Z,82.11
2022-11-30T02:38:22.019Z,81.96
2022-11-30T02:40:53.106Z,82.01
2022-11-30T02:43:20.682Z,81.79
2022-11-30T02:45:48.382Z,81.98
2022-11-30T02:48:15.924Z,81.83
2022-11-30T02:50:43.482Z,82.01
2022-11-30T02:53:13.753Z,81.74
2022-11-30T02:55:41.348Z,82.10
2022-11-30T02:58:08.956Z,81.90
2022-11-30T03:00:36.576Z,81.79
2022-11-30T03:03:10.415Z,81.84
2022-11-30T03:05:40.125Z,81.78
2022-11-30T03:08:07.704Z,82.10
2022-11-30T03:10:35.290Z,81.97
2022-11-30T03:13:02.880Z,82.28
2022-11-30T03:15:30.459Z,82.39
2022-11-30T03:17:58.333Z,82.50
2022-11-30T03:20:25.965Z,82.48
2022-11-30T03:22:53.557Z,82.44
2022-11-30T03:25:21.384Z,82.32
2022-11-30T03:27:49.004Z,82.76
2022-11-30T03:30:18.450Z,82.96
2022-11-30T03:32:46.074Z,82.71
2022-11-30T03:35:13.675Z,82.97
2022-11-30T03:37:41.235Z,82.36
2022-11-30T03:40:08.775Z,82.65
2022-11-30T03:42:37.313Z,83.10
2022-11-30T03:45:04.859Z,83.15
2022-11-30T03:47:32.406Z,83.18
2022-11-30T03:49:59.990Z,83.30
2022-11-30T03:52:27.541Z,83.21
2022-11-30T03:54:55.470Z,83.11
2022-11-30T03:57:23.082Z,83.21
2022-11-30T03:59:50.745Z,83.47
2022-11-30T04:02:18.281Z,83.21
2022-11-30T04:04:46.138Z,83.31
2022-11-30T04:07:14.641Z,83.72
2022-11-30T04:09:42.493Z,83.77
2022-11-30T04:12:10.138Z,83.95
2022-11-30T04:14:37.692Z,84.17
2022-11-30T04:17:05.274Z,84.08
2022-11-30T04:19:32.920Z,84.17
2022-11-30T04:22:00.481Z,84.24
2022-11-30T04:24:28.043Z,83.80
2022-11-30T04:26:55.646Z,84.28
2022-11-30T04:29:23.236Z,84.22
2022-11-30T04:31:54.331Z,84.72
2022-11-30T04:34:21.939Z,84.35
2022-11-30T04:36:49.518Z,84.38
2022-11-30T04:39:17.092Z,84.18
2022-11-30T04:41:44.725Z,84.44
2022-11-30T04:44:12.625Z,84.32
2022-11-30T04:46:40.225Z,84.45
2022-11-30T04:49:08.087Z,84.45
2022-11-30T04:51:35.670Z,84.49
2022-11-30T04:54:03.679Z,84.80
2022-11-30T04:56:32.385Z,84.21
2022-11-30T04:58:59.925Z,84.09
2022-11-30T05:01:27.509Z,84.36
2022-11-30T05:03:55.262Z,84.39
2022-11-30T05:06:22.877Z,83.93
2022-11-30T05:08:51.818Z,84.72
2022-11-30T05:11:19.745Z,84.62
2022-11-30T05:13:47.343Z,83.96
2022-11-30T05:16:14.953Z,84.37
2022-11-30T05:18:42.705Z,84.61
2022-11-30T05:21:10.642Z,83.87
2022-11-30T05:23:38.205Z,84.17
2022-11-30T05:26:05.848Z,84.21
2022-11-30T05:28:33.498Z,84.09
2022-11-30T05:31:01.138Z,84.01
2022-11-30T05:33:29.748Z,84.02
2022-11-30T05:35:57.334Z,84.22
2022-11-30T05:38:25.190Z,83.89
2022-11-30T05:40:52.842Z,83.72
2022-11-30T05:43:20.422Z,83.96
2022-11-30T05:45:48.256Z,83.87
2022-11-30T05:48:15.965Z,84.02
2022-11-30T05:50:43.540Z,84.01
2022-11-30T05:53:11.114Z,84.01
2022-11-30T05:55:38.740Z,84.22
2022-11-30T05:58:06.918Z,83.88
2022-11-30T06:00:34.835Z,83.92
2022-11-30T06:03:02.625Z,83.52
2022-11-30T06:05:30.355Z,83.93
2022-11-30T06:07:58.008Z,83.62
2022-11-30T06:10:27.930Z,83.79
2022-11-30T06:12:55.542Z,83.92
2022-11-30T06:15:23.178Z,83.98
2022-11-30T06:17:50.867Z,83.70
2022-11-30T06:20:18.501Z,83.94
2022-11-30T06:22:49.411Z,84.08
2022-11-30T06:25:17.103Z,83.91
2022-11-30T06:27:44.928Z,83.81
2022-11-30T06:30:12.580Z,84.35
2022-11-30T06:32:40.299Z,83.70
2022-11-30T06:35:08.236Z,84.30
2022-11-30T06:37:36.174Z,83.52
2022-11-30T06:40:07.111Z,83.71
2022-11-30T06:42:35.326Z,83.87
2022-11-30T06:45:02.963Z,83.70
2022-11-30T06:47:31.214Z,83.44
2022-11-30T06:49:58.812Z,83.90
2022-11-30T06:52:26.475Z,83.74
2022-11-30T06:54:54.121Z,83.72
2022-11-30T06:57:21.856Z,83.72
2022-11-30T06:59:49.870Z,83.63
2022-11-30T07:02:18.714Z,83.65
2022-11-30T07:04:47.323Z,83.31
2022-11-30T07:07:15.168Z,83.52
2022-11-30T07:09:42.938Z,83.43
2022-11-30T07:12:12.340Z,83.35
2022-11-30T07:14:39.971Z,83.37
2022-11-30T07:17:07.771Z,83.53
2022-11-30T07:19:35.712Z,83.17
2022-11-30T07:22:03.516Z,83.14
2022-11-30T07:24:49.640Z,83.43
2022-11-30T07:27:18.419Z,83.16
2022-11-30T07:29:48.924Z,83.57
2022-11-30T07:32:16.733Z,83.42
2022-11-30T07:34:44.661Z,83.46
2022-11-30T07:37:12.835Z,83.30
2022-11-30T07:39:41.156Z,83.37
2022-11-30T07:42:08.886Z,83.33
2022-11-30T07:44:36.727Z,83.09
2022-11-30T07:47:04.499Z,83.39
2022-11-30T07:49:32.532Z,83.31
2022-11-30T07:52:00.908Z,82.79
2022-11-30T07:54:28.725Z,83.20
2022-11-30T07:56:56.382Z,83.31
2022-11-30T07:59:24.135Z,83.61
2022-11-30T08:01:51.996Z,83.19
2022-11-30T08:04:20.335Z,83.20
2022-11-30T08:06:48.129Z,83.25
2022-11-30T08:09:20.548Z,83.14
2022-11-30T08:11:48.804Z,82.81
2022-11-30T08:14:16.961Z,83.19
2022-11-30T08:16:44.924Z,83.06
2022-11-30T08:19:12.829Z,82.97
2022-11-30T08:21:40.616Z,83.13
2022-11-30T08:24:08.544Z,83.11
2022-11-30T08:26:36.905Z,83.12
2022-11-30T08:29:05.398Z,83.08
2022-11-30T08:31:33.487Z,83.04
2022-11-30T08:34:01.327Z,83.10
2022-11-30T08:36:29.142Z,82.89
2022-11-30T08:38:57.230Z,82.89
2022-11-30T08:41:26.687Z,83.12
2022-11-30T08:43:54.501Z,83.01
2022-11-30T08:49:25.788Z,83.01
2022-11-30T08:54:47.040Z,82.98
2022-11-30T08:57:15.453Z,82.96
2022-11-30T08:59:43.803Z,83.01
2022-11-30T09:02:14.439Z,82.84
2022-11-30T09:04:42.269Z,82.72
2022-11-30T09:07:10.094Z,83.17
2022-11-30T09:09:38.329Z,82.83
2022-11-30T09:12:06.761Z,82.35
2022-11-30T09:14:36.629Z,82.55
2022-11-30T09:17:04.872Z,82.62
2022-11-30T09:19:32.702Z,82.42
2022-11-30T09:22:00.738Z,82.94
2022-11-30T09:24:28.737Z,82.66
2022-11-30T09:26:57.912Z,82.63
2022-11-30T09:29:25.664Z,82.56
2022-11-30T09:31:53.488Z,82.14
2022-11-30T09:34:21.482Z,82.30
2022-11-30T09:36:50.148Z,82.47
2022-11-30T09:39:18.072Z,82.43
2022-11-30T09:41:46.132Z,82.76
2022-11-30T09:44:14.080Z,82.80
2022-11-30T09:46:42.113Z,82.53
2022-11-30T09:49:10.475Z,82.29
2022-11-30T09:51:39.455Z,82.72
2022-11-30T09:54:09.148Z,82.58
2022-11-30T09:56:37.503Z,82.79
2022-11-30T09:59:05.515Z,82.48
2022-11-30T10:01:37.647Z,82.93
2022-11-30T10:04:05.859Z,82.59
2022-11-30T10:06:33.559Z,82.76
2022-11-30T10:09:01.504Z,82.49
2022-11-30T10:11:29.394Z,82.72
2022-11-30T10:13:57.985Z,82.78
2022-11-30T10:16:26.110Z,82.52
2022-11-30T10:18:54.056Z,82.51
2022-11-30T10:21:21.899Z,82.75
2022-11-30T10:23:50.981Z,83.04
2022-11-30T10:26:18.934Z,82.74
2022-11-30T10:28:48.105Z,82.60
2022-11-30T10:31:16.553Z,82.85
2022-11-30T10:33:44.578Z,82.68
2022-11-30T10:36:12.522Z,82.34
2022-11-30T10:38:40.765Z,82.50
2022-11-30T10:41:10.775Z,82.52
2022-11-30T10:43:39.027Z,82.74
2022-11-30T10:46:08.517Z,82.56
2022-11-30T10:48:38.022Z,82.54
2022-11-30T10:51:06.441Z,82.25
2022-11-30T10:53:34.557Z,82.44
2022-11-30T10:56:02.302Z,82.74
2022-11-30T10:58:30.187Z,82.64
2022-11-30T11:00:58.160Z,82.49
2022-11-30T11:03:26.421Z,82.57
2022-11-30T11:05:54.315Z,82.64
2022-11-30T11:08:22.390Z,82.61
2022-11-30T11:10:52.023Z,82.90
2022-11-30T11:13:19.934Z,82.83
2022-11-30T11:15:48.478Z,82.87
2022-11-30T11:18:17.555Z,82.57
2022-11-30T11:20:45.470Z,82.72
2022-11-30T11:23:13.371Z,82.95
2022-11-30T11:25:43.403Z,82.60
2022-11-30T11:28:11.537Z,82.75
2022-11-30T11:30:41.381Z,82.80
2022-11-30T11:33:09.357Z,82.62
2022-11-30T11:35:37.214Z,82.85
2022-11-30T11:38:05.625Z,82.68
2022-11-30T11:40:33.858Z,82.84
2022-11-30T11:43:04.396Z,82.99
2022-11-30T11:45:32.562Z,82.89
2022-11-30T11:48:00.475Z,82.92
2022-11-30T11:51:04.438Z,82.87
2022-11-30T11:53:23.616Z,82.59
2022-11-30T11:55:51.600Z,82.57
2022-11-30T11:58:19.455Z,82.83
2022-11-30T12:00:48.773Z,82.83
2022-11-30T12:03:16.790Z,82.80
2022-11-30T12:08:54.375Z,82.80
2022-11-30T12:11:22.305Z,82.84
2022-11-30T12:13:50.489Z,82.35
2022-11-30T12:16:20.218Z,82.71
2022-11-30T12:18:48.158Z,83.14
2022-11-30T12:21:15.996Z,82.60
2022-11-30T12:23:43.829Z,83.09
2022-11-30T12:26:11.861Z,83.37
2022-11-30T12:28:39.785Z,83.10
2022-11-30T12:31:10.991Z,83.02
2022-11-30T12:33:39.324Z,83.34
2022-11-30T12:36:07.286Z,82.75
2022-11-30T12:38:35.259Z,83.11
2022-11-30T12:41:03.063Z,83.06
2022-11-30T12:43:31.405Z,82.85
2022-11-30T12:45:59.873Z,83.42
2022-11-30T12:48:27.693Z,83.28
2022-11-30T12:50:55.538Z,83.13
2022-11-30T12:53:23.892Z,83.16
2022-11-30T12:55:51.942Z,82.95
2022-11-30T12:58:20.171Z,83.46
2022-11-30T13:00:48.157Z,83.03
2022-11-30T13:03:16.061Z,82.93
2022-11-30T13:05:43.935Z,83.79
2022-11-30T13:08:12.263Z,83.46
2022-11-30T13:10:40.091Z,83.32
2022-11-30T13:13:07.906Z,83.31
2022-11-30T13:15:37.029Z,83.44
2022-11-30T13:18:05.216Z,82.79
2022-11-30T13:20:33.101Z,82.93
2022-11-30T13:23:01.560Z,83.25
2022-11-30T13:26:05.702Z,83.30
2022-11-30T13:28:18.160Z,83.31
2022-11-30T13:30:46.065Z,83.57
2022-11-30T13:33:14.484Z,83.05
2022-11-30T13:35:43.179Z,83.40
2022-11-30T13:38:35.863Z,83.21
2022-11-30T13:40:58.988Z,82.94
2022-11-30T13:43:27.080Z,83.78
2022-11-30T13:45:55.164Z,83.05
2022-11-30T13:48:23.176Z,83.22
2022-11-30T13:50:51.087Z,82.92
2022-11-30T13:53:19.996Z,82.94
2022-11-30T13:55:48.603Z,82.73
2022-11-30T13:58:16.873Z,82.79
2022-11-30T14:00:44.742Z,83.19
2022-11-30T14:03:12.796Z,82.65
2022-11-30T14:05:40.711Z,83.33
2022-11-30T14:08:10.590Z,83.06
2022-11-30T14:10:38.576Z,83.09
2022-11-30T14:13:06.466Z,83.19
2022-11-30T14:15:34.645Z,83.54
2022-11-30T14:18:03.804Z,83.60
2022-11-30T14:20:37.383Z,83.57
2022-11-30T14:23:05.932Z,83.05
2022-11-30T14:25:33.789Z,83.53
2022-11-30T14:28:01.644Z,83.66
2022-11-30T14:30:29.672Z,83.34
2022-11-30T14:32:58.075Z,83.39
2022-11-30T14:35:25.992Z,83.98
2022-11-30T14:37:54.060Z,83.33
2022-11-30T14:40:22.348Z,83.72
2022-11-30T14:42:50.203Z,83.43
2022-11-30T14:45:18.623Z,83.74
2022-11-30T14:47:48.223Z,83.12
2022-11-30T14:50:16.247Z,83.19
2022-11-30T14:52:44.454Z,83.61
2022-11-30T14:55:13.994Z,83.54
2022-11-30T14:57:42.833Z,83.73
2022-11-30T15:00:10.883Z,83.81
2022-11-30T15:02:39.160Z,83.52
2022-11-30T15:05:07.188Z,83.73
2022-11-30T15:07:37.070Z,83.79
2022-11-30T15:10:05.430Z,84.01
2022-11-30T15:12:33.286Z,83.72
2022-11-30T15:15:01.352Z,83.90
2022-11-30T15:17:29.296Z,83.74
2022-11-30T15:19:58.533Z,84.20
2022-11-30T15:22:27.211Z,83.63
2022-11-30T15:24:55.410Z,84.24
2022-11-30T15:27:23.240Z,83.87
2022-11-30T15:29:51.316Z,83.73
2022-11-30T15:32:20.814Z,83.87
2022-11-30T15:34:54.893Z,84.03
2022-11-30T15:37:24.354Z,83.92
2022-11-30T15:39:52.568Z,83.77
2022-11-30T15:42:20.464Z,83.46
2022-11-30T15:44:49.357Z,83.89
2022-11-30T15:47:17.191Z,83.84
2022-11-30T15:49:45.254Z,83.88
2022-11-30T15:52:13.373Z,84.18
2022-11-30T15:54:41.901Z,84.39
2022-11-30T15:57:10.391Z,83.83
2022-11-30T15:59:38.415Z,83.78
2022-11-30T16:02:08.993Z,84.45
2022-11-30T16:04:36.888Z,83.91
2022-11-30T16:07:08.392Z,83.95
2022-11-30T16:09:36.835Z,84.16
2022-11-30T16:12:04.694Z,84.10
2022-11-30T16:14:32.670Z,84.16
2022-11-30T16:17:04.197Z,83.91
2022-11-30T16:19:38.183Z,83.93
2022-11-30T16:22:06.046Z,83.99
2022-11-30T16:24:33.863Z,83.80
2022-11-30T16:27:01.818Z,83.63
2022-11-30T16:29:29.677Z,83.48
2022-11-30T16:31:58.307Z,83.96
2022-11-30T16:34:26.188Z,84.11
2022-11-30T16:36:54.000Z,83.85
2022-11-30T16:39:21.914Z,84.13
2022-11-30T16:41:49.875Z,83.98
2022-11-30T16:44:19.163Z,83.67
2022-11-30T16:46:47.016Z,84.01
2022-11-30T16:49:15.037Z,84.04
2022-11-30T16:51:43.162Z,84.12
2022-11-30T16:54:10.974Z,83.96
2022-11-30T16:56:39.264Z,84.21
2022-11-30T16:59:12.062Z,84.14
2022-11-30T17:01:43.439Z,84.43
2022-11-30T17:04:11.323Z,83.86
2022-11-30T17:06:39.313Z,83.95
2022-11-30T17:09:07.812Z,83.84
2022-11-30T17:11:35.656Z,84.31
2022-11-30T17:14:03.522Z,84.38
2022-11-30T17:16:31.571Z,84.19
2022-11-30T17:19:01.378Z,83.87
2022-11-30T17:21:29.236Z,83.85
2022-11-30T17:23:57.364Z,84.06
2022-11-30T17:26:25.107Z,84.14
2022-11-30T17:28:52.902Z,84.13
2022-11-30T17:31:21.725Z,84.03
2022-11-30T17:33:49.771Z,84.08
2022-11-30T17:36:18.935Z,84.31
2022-11-30T17:38:47.060Z,84.32
2022-11-30T17:41:18.899Z,84.13
2022-11-30T17:43:49.692Z,84.22
2022-11-30T17:46:17.684Z,83.93
2022-11-30T17:48:45.642Z,84.48
2022-11-30T17:51:13.758Z,84.57
2022-11-30T17:53:41.842Z,84.24
2022-11-30T17:56:10.225Z,84.20
2022-11-30T17:58:43.313Z,84.03
2022-11-30T18:01:11.531Z,84.07
2022-11-30T18:03:39.598Z,84.18
2022-11-30T18:06:07.520Z,84.40
2022-11-30T18:08:35.573Z,84.03
2022-11-30T18:11:03.566Z,84.19
2022-11-30T18:13:31.776Z,84.17
2022-11-30T18:15:59.554Z,84.07
2022-11-30T18:18:27.664Z,84.27
2022-11-30T18:20:56.214Z,84.02
2022-11-30T18:23:24.004Z,84.27
2022-11-30T18:25:52.045Z,84.21
2022-11-30T18:28:19.884Z,83.90
2022-11-30T18:30:47.713Z,84.28
2022-11-30T18:33:16.177Z,84.35
2022-11-30T18:35:44.385Z,84.24
2022-11-30T18:38:12.168Z,84.09
2022-11-30T18:40:40.140Z,84.38
2022-11-30T18:43:08.014Z,83.98
2022-11-30T18:45:39.153Z,84.33
2022-11-30T18:48:07.606Z,84.05
2022-11-30T18:50:35.506Z,84.16
2022-11-30T18:53:03.351Z,84.05
2022-11-30T18:55:31.197Z,84.29
2022-11-30T18:58:02.976Z,83.89
2022-11-30T19:00:30.797Z,84.07
2022-11-30T19:02:58.741Z,84.10
2022-11-30T19:05:36.619Z,84.17
2022-11-30T19:08:07.414Z,84.31
2022-11-30T19:10:35.530Z,83.97
2022-11-30T19:13:04.205Z,84.67
2022-11-30T19:15:32.302Z,83.88
2022-11-30T19:18:00.037Z,83.73
2022-11-30T19:20:29.547Z,84.17
2022-11-30T19:22:57.554Z,84.46
2022-11-30T19:25:25.420Z,83.76
2022-11-30T19:27:53.269Z,84.03
2022-11-30T19:30:21.264Z,84.23
2022-11-30T19:32:50.025Z,83.99
2022-11-30T19:35:17.889Z,84.11
2022-11-30T19:37:45.880Z,84.07
2022-11-30T19:40:15.017Z,83.99
2022-11-30T19:42:42.876Z,84.00
2022-11-30T19:45:11.568Z,84.34
2022-11-30T19:47:39.399Z,84.54
2022-11-30T19:50:07.185Z,84.46
2022-11-30T19:52:35.225Z,84.22
2022-11-30T19:55:03.060Z,84.12
2022-11-30T19:57:32.446Z,84.21
2022-11-30T20:00:00.260Z,84.37
2022-11-30T20:02:28.430Z,84.16
2022-11-30T20:04:56.297Z,84.45
2022-11-30T20:07:24.351Z,84.17
2022-11-30T20:09:54.794Z,84.35
2022-11-30T20:12:22.683Z,84.37
2022-11-30T20:14:51.333Z,84.36
2022-11-30T20:17:19.189Z,84.23
2022-11-30T20:19:47.005Z,84.32
2022-11-30T20:22:16.792Z,84.01
2022-11-30T20:24:44.851Z,84.03
2022-11-30T20:27:12.648Z,84.59
2022-11-30T20:29:40.578Z,84.27
2022-11-30T20:32:08.529Z,84.03
2022-11-30T20:34:43.476Z,84.52
2022-11-30T20:37:11.713Z,84.12
2022-11-30T20:39:45.355Z,84.38
2022-11-30T20:42:13.807Z,84.35
2022-11-30T20:44:42.978Z,84.71
2022-11-30T20:47:11.519Z,84.18
2022-11-30T20:49:39.438Z,84.03
2022-11-30T20:52:08.995Z,84.33
2022-11-30T20:54:36.775Z,84.08
2022-11-30T20:57:05.788Z,84.28
2022-11-30T20:59:34.667Z,84.16
2022-11-30T21:02:02.699Z,84.19
2022-11-30T21:04:30.722Z,84.34
2022-11-30T21:06:58.803Z,84.44
2022-11-30T21:09:27.126Z,84.48
2022-11-30T21:11:55.233Z,84.30
2022-11-30T21:14:23.143Z,84.33
2022-11-30T21:16:51.069Z,84.29
2022-11-30T21:19:19.191Z,83.92
2022-11-30T21:21:48.889Z,84.22
2022-11-30T21:24:16.757Z,84.32
2022-11-30T21:26:44.658Z,83.99
2022-11-30T21:29:12.877Z,84.22
2022-11-30T21:31:40.731Z,84.08
2022-11-30T21:34:11.029Z,84.13
2022-11-30T21:36:38.895Z,84.85
2022-11-30T21:39:07.811Z,84.31
2022-11-30T21:41:35.725Z,84.50
2022-11-30T21:44:03.503Z,84.28
2022-11-30T21:46:33.132Z,84.43
2022-11-30T21:49:01.432Z,84.60
2022-11-30T21:51:29.476Z,84.36
2022-11-30T21:53:57.320Z,84.46
2022-11-30T21:56:25.358Z,84.14
2022-11-30T21:58:53.482Z,84.29
2022-11-30T22:01:21.299Z,84.67
2022-11-30T22:03:49.307Z,84.32
2022-11-30T22:06:17.127Z,84.35
2022-11-30T22:08:44.959Z,84.28
2022-11-30T22:11:14.379Z,84.04
2022-11-30T22:13:42.537Z,84.31
2022-11-30T22:16:10.479Z,84.25
2022-11-30T22:18:38.514Z,84.43
2022-11-30T22:21:06.427Z,84.53
2022-11-30T22:23:34.723Z,84.34
2022-11-30T22:26:02.682Z,84.26
2022-11-30T22:28:30.597Z,84.59
2022-11-30T22:30:58.336Z,84.32
2022-11-30T22:33:26.247Z,84.38
2022-11-30T22:35:54.648Z,84.51
2022-11-30T22:38:22.551Z,84.49
2022-11-30T22:40:50.312Z,84.85
2022-11-30T22:43:18.113Z,84.87
2022-11-30T22:45:46.016Z,84.11
2022-11-30T22:48:15.785Z,84.38
2022-11-30T22:50:43.559Z,84.54
2022-11-30T22:53:11.385Z,84.45
2022-11-30T22:55:41.618Z,84.39
2022-11-30T22:58:13.609Z,84.45
2022-11-30T23:00:44.153Z,84.40
2022-11-30T23:03:12.126Z,84.08
2022-11-30T23:05:40.055Z,84.48
2022-11-30T23:08:08.047Z,84.54
2022-11-30T23:10:36.018Z,84.54
2022-11-30T23:13:04.187Z,84.46
2022-11-30T23:15:32.032Z,84.57
2022-11-30T23:17:59.915Z,84.49
2022-11-30T23:20:28.001Z,84.52
2022-11-30T23:22:55.880Z,84.85
2022-11-30T23:25:25.278Z,84.39
2022-11-30T23:27:53.977Z,84.49
2022-11-30T23:30:21.734Z,84.59
2022-11-30T23:32:49.475Z,84.74
2022-11-30T23:35:17.144Z,84.56
2022-11-30T23:37:45.338Z,84.44
2022-11-30T23:40:13.053Z,84.24
2022-11-30T23:42:41.025Z,84.49
2022-11-30T23:45:08.755Z,84.52
2022-11-30T23:47:36.426Z,84.44
2022-11-30T23:50:04.444Z,84.57
2022-11-30T23:52:32.151Z,84.33
2022-11-30T23:54:59.807Z,84.31
2022-11-30T23:57:27.522Z,84.32
2022-11-30T23:59:55.244Z,84.36
